sensor_id;sensor_type;location;lat;lon;timestamp;P1;durP1;ratioP1;P2;durP2;ratioP2
4047;SDS011;2038;51.728;6.674;2022-08-19T00:01:31;8.57;;;7.70;;
4047;SDS011;2038;51.728;6.674;2022-08-19T00:04:03;7.77;;;6.97;;
4047;SDS011;2038;51.728;6.674;2022-08-19T00:06:34;8.53;;;7.70;;
4047;SDS011;2038;51.728;6.674;2022-08-19T00:09:03;9.57;;;8.67;;
4047;SDS011;2038;51.728;6.674;2022-08-19T00:11:33;12.13;;;9.33;;
4047;SDS011;2038;51.728;6.674;2022-08-19T00:14:02;9.33;;;8.27;;
4047;SDS011;2038;51.728;6.674;2022-08-19T00:16:31;9.60;;;7.53;;
4047;SDS011;2038;51.728;6.674;2022-08-19T00:18:58;10.63;;;9.53;;
4047;SDS011;2038;51.728;6.674;2022-08-19T00:21:24;9.63;;;8.63;;
4047;SDS011;2038;51.728;6.674;2022-08-19T00:23:51;10.43;;;9.40;;
4047;SDS011;2038;51.728;6.674;2022-08-19T00:26:23;11.80;;;9.10;;
4047;SDS011;2038;51.728;6.674;2022-08-19T00:28:52;10.20;;;9.20;;
4047;SDS011;2038;51.728;6.674;2022-08-19T00:31:19;10.47;;;9.40;;
4047;SDS011;2038;51.728;6.674;2022-08-19T00:33:46;10.40;;;9.20;;
4047;SDS011;2038;51.728;6.674;2022-08-19T00:36:14;10.07;;;9.07;;
4047;SDS011;2038;51.728;6.674;2022-08-19T00:38:42;10.50;;;8.80;;
4047;SDS011;2038;51.728;6.674;2022-08-19T00:41:13;11.87;;;8.97;;
4047;SDS011;2038;51.728;6.674;2022-08-19T00:43:42;9.50;;;8.63;;
4047;SDS011;2038;51.728;6.674;2022-08-19T00:46:20;9.17;;;8.33;;
4047;SDS011;2038;51.728;6.674;2022-08-19T00:48:47;9.27;;;8.37;;
4047;SDS011;2038;51.728;6.674;2022-08-19T00:51:13;8.70;;;7.80;;
4047;SDS011;2038;51.728;6.674;2022-08-19T00:53:39;12.33;;;8.97;;
4047;SDS011;2038;51.728;6.674;2022-08-19T00:56:06;12.03;;;10.13;;
4047;SDS011;2038;51.728;6.674;2022-08-19T00:58:34;10.10;;;9.13;;
4047;SDS011;2038;51.728;6.674;2022-08-19T01:01:01;11.83;;;9.90;;
4047;SDS011;2038;51.728;6.674;2022-08-19T01:03:29;11.10;;;9.60;;
4047;SDS011;2038;51.728;6.674;2022-08-19T01:05:56;12.53;;;10.20;;
4047;SDS011;2038;51.728;6.674;2022-08-19T01:08:22;11.70;;;9.27;;
4047;SDS011;2038;51.728;6.674;2022-08-19T01:10:50;13.10;;;11.20;;
4047;SDS011;2038;51.728;6.674;2022-08-19T01:13:25;10.63;;;9.00;;
4047;SDS011;2038;51.728;6.674;2022-08-19T01:16:04;11.07;;;10.03;;
4047;SDS011;2038;51.728;6.674;2022-08-19T01:18:35;11.70;;;9.80;;
4047;SDS011;2038;51.728;6.674;2022-08-19T01:21:10;12.10;;;10.00;;
4047;SDS011;2038;51.728;6.674;2022-08-19T01:23:59;9.80;;;8.60;;
4047;SDS011;2038;51.728;6.674;2022-08-19T01:26:25;11.20;;;8.77;;
4047;SDS011;2038;51.728;6.674;2022-08-19T01:28:54;8.90;;;8.10;;
4047;SDS011;2038;51.728;6.674;2022-08-19T01:31:24;11.27;;;10.17;;
4047;SDS011;2038;51.728;6.674;2022-08-19T01:33:56;13.63;;;10.90;;
4047;SDS011;2038;51.728;6.674;2022-08-19T01:36:29;12.07;;;10.83;;
4047;SDS011;2038;51.728;6.674;2022-08-19T01:39:24;11.10;;;10.00;;
4047;SDS011;2038;51.728;6.674;2022-08-19T01:41:51;20.20;;;12.60;;
4047;SDS011;2038;51.728;6.674;2022-08-19T01:44:19;13.23;;;11.93;;
4047;SDS011;2038;51.728;6.674;2022-08-19T01:46:48;15.63;;;10.73;;
4047;SDS011;2038;51.728;6.674;2022-08-19T01:49:20;13.27;;;9.43;;
4047;SDS011;2038;51.728;6.674;2022-08-19T01:51:48;9.87;;;8.83;;
4047;SDS011;2038;51.728;6.674;2022-08-19T01:54:16;11.33;;;9.20;;
4047;SDS011;2038;51.728;6.674;2022-08-19T01:56:44;10.20;;;9.10;;
4047;SDS011;2038;51.728;6.674;2022-08-19T01:59:14;12.00;;;10.03;;
4047;SDS011;2038;51.728;6.674;2022-08-19T02:01:45;11.20;;;10.00;;
4047;SDS011;2038;51.728;6.674;2022-08-19T02:04:11;14.07;;;11.23;;
4047;SDS011;2038;51.728;6.674;2022-08-19T02:06:38;17.93;;;11.30;;
4047;SDS011;2038;51.728;6.674;2022-08-19T02:09:05;13.77;;;11.10;;
4047;SDS011;2038;51.728;6.674;2022-08-19T02:11:33;12.40;;;10.67;;
4047;SDS011;2038;51.728;6.674;2022-08-19T02:14:04;16.87;;;12.23;;
4047;SDS011;2038;51.728;6.674;2022-08-19T02:16:32;10.83;;;9.57;;
4047;SDS011;2038;51.728;6.674;2022-08-19T02:19:00;12.80;;;10.97;;
4047;SDS011;2038;51.728;6.674;2022-08-19T02:21:28;12.47;;;9.93;;
4047;SDS011;2038;51.728;6.674;2022-08-19T02:23:55;15.43;;;12.17;;
4047;SDS011;2038;51.728;6.674;2022-08-19T02:26:22;14.13;;;12.60;;
4047;SDS011;2038;51.728;6.674;2022-08-19T02:28:50;14.97;;;12.23;;
4047;SDS011;2038;51.728;6.674;2022-08-19T02:31:18;16.47;;;11.97;;
4047;SDS011;2038;51.728;6.674;2022-08-19T02:33:48;13.50;;;12.10;;
4047;SDS011;2038;51.728;6.674;2022-08-19T02:36:15;15.67;;;12.67;;
4047;SDS011;2038;51.728;6.674;2022-08-19T02:38:42;12.87;;;11.50;;
4047;SDS011;2038;51.728;6.674;2022-08-19T02:41:14;14.90;;;13.30;;
4047;SDS011;2038;51.728;6.674;2022-08-19T02:43:46;16.83;;;13.60;;
4047;SDS011;2038;51.728;6.674;2022-08-19T02:46:14;15.90;;;12.77;;
4047;SDS011;2038;51.728;6.674;2022-08-19T02:48:48;15.00;;;12.70;;
4047;SDS011;2038;51.728;6.674;2022-08-19T02:51:18;19.47;;;16.67;;
4047;SDS011;2038;51.728;6.674;2022-08-19T02:53:49;15.30;;;13.27;;
4047;SDS011;2038;51.728;6.674;2022-08-19T02:56:16;15.70;;;14.10;;
4047;SDS011;2038;51.728;6.674;2022-08-19T02:58:44;17.83;;;14.10;;
4047;SDS011;2038;51.728;6.674;2022-08-19T03:01:11;14.70;;;12.17;;
4047;SDS011;2038;51.728;6.674;2022-08-19T03:03:56;14.43;;;12.80;;
4047;SDS011;2038;51.728;6.674;2022-08-19T03:06:28;13.00;;;11.60;;
4047;SDS011;2038;51.728;6.674;2022-08-19T03:08:55;13.10;;;11.80;;
4047;SDS011;2038;51.728;6.674;2022-08-19T03:11:24;16.90;;;13.77;;
4047;SDS011;2038;51.728;6.674;2022-08-19T03:13:54;15.83;;;14.30;;
4047;SDS011;2038;51.728;6.674;2022-08-19T03:16:22;12.23;;;11.00;;
4047;SDS011;2038;51.728;6.674;2022-08-19T03:18:51;14.03;;;12.50;;
4047;SDS011;2038;51.728;6.674;2022-08-19T03:21:21;13.70;;;12.20;;
4047;SDS011;2038;51.728;6.674;2022-08-19T03:23:50;15.20;;;12.03;;
4047;SDS011;2038;51.728;6.674;2022-08-19T03:26:20;17.07;;;13.67;;
4047;SDS011;2038;51.728;6.674;2022-08-19T03:28:47;17.20;;;14.57;;
4047;SDS011;2038;51.728;6.674;2022-08-19T03:31:15;17.47;;;14.93;;
4047;SDS011;2038;51.728;6.674;2022-08-19T03:33:48;21.37;;;15.73;;
4047;SDS011;2038;51.728;6.674;2022-08-19T03:36:17;17.87;;;14.90;;
4047;SDS011;2038;51.728;6.674;2022-08-19T03:38:48;15.33;;;12.53;;
4047;SDS011;2038;51.728;6.674;2022-08-19T03:41:20;15.53;;;13.37;;
4047;SDS011;2038;51.728;6.674;2022-08-19T03:43:50;14.60;;;12.27;;
4047;SDS011;2038;51.728;6.674;2022-08-19T03:46:18;19.93;;;12.87;;
4047;SDS011;2038;51.728;6.674;2022-08-19T03:48:50;17.50;;;14.67;;
4047;SDS011;2038;51.728;6.674;2022-08-19T03:51:28;19.53;;;15.13;;
4047;SDS011;2038;51.728;6.674;2022-08-19T03:53:59;18.10;;;14.07;;
4047;SDS011;2038;51.728;6.674;2022-08-19T03:56:29;15.77;;;13.53;;
4047;SDS011;2038;51.728;6.674;2022-08-19T03:58:56;17.50;;;13.10;;
4047;SDS011;2038;51.728;6.674;2022-08-19T04:01:25;15.17;;;13.57;;
4047;SDS011;2038;51.728;6.674;2022-08-19T04:03:55;17.03;;;13.80;;
4047;SDS011;2038;51.728;6.674;2022-08-19T04:06:24;17.13;;;13.83;;
4047;SDS011;2038;51.728;6.674;2022-08-19T04:08:54;15.73;;;13.30;;
4047;SDS011;2038;51.728;6.674;2022-08-19T04:11:24;17.53;;;14.97;;
4047;SDS011;2038;51.728;6.674;2022-08-19T04:13:54;15.77;;;13.50;;
4047;SDS011;2038;51.728;6.674;2022-08-19T04:16:22;23.80;;;15.17;;
4047;SDS011;2038;51.728;6.674;2022-08-19T04:18:54;18.20;;;16.30;;
4047;SDS011;2038;51.728;6.674;2022-08-19T04:21:25;19.17;;;16.30;;
4047;SDS011;2038;51.728;6.674;2022-08-19T04:23:53;20.37;;;15.70;;
4047;SDS011;2038;51.728;6.674;2022-08-19T04:26:26;20.37;;;16.00;;
4047;SDS011;2038;51.728;6.674;2022-08-19T04:28:59;18.63;;;14.13;;
4047;SDS011;2038;51.728;6.674;2022-08-19T04:31:33;17.03;;;13.40;;
4047;SDS011;2038;51.728;6.674;2022-08-19T04:34:00;20.80;;;16.23;;
4047;SDS011;2038;51.728;6.674;2022-08-19T04:36:32;18.57;;;15.37;;
4047;SDS011;2038;51.728;6.674;2022-08-19T04:39:05;17.10;;;14.63;;
4047;SDS011;2038;51.728;6.674;2022-08-19T04:41:44;22.83;;;15.70;;
4047;SDS011;2038;51.728;6.674;2022-08-19T04:44:33;19.50;;;15.40;;
4047;SDS011;2038;51.728;6.674;2022-08-19T04:47:01;19.50;;;15.00;;
4047;SDS011;2038;51.728;6.674;2022-08-19T04:49:30;18.20;;;14.63;;
4047;SDS011;2038;51.728;6.674;2022-08-19T04:51:57;16.63;;;13.77;;
4047;SDS011;2038;51.728;6.674;2022-08-19T04:54:23;21.13;;;16.03;;
4047;SDS011;2038;51.728;6.674;2022-08-19T04:56:51;15.77;;;14.17;;
4047;SDS011;2038;51.728;6.674;2022-08-19T04:59:18;13.50;;;11.87;;
4047;SDS011;2038;51.728;6.674;2022-08-19T05:01:47;17.40;;;15.47;;
4047;SDS011;2038;51.728;6.674;2022-08-19T05:04:15;19.07;;;16.00;;
4047;SDS011;2038;51.728;6.674;2022-08-19T05:06:44;18.50;;;16.50;;
4047;SDS011;2038;51.728;6.674;2022-08-19T05:09:14;24.27;;;18.13;;
4047;SDS011;2038;51.728;6.674;2022-08-19T05:11:41;24.37;;;19.17;;
4047;SDS011;2038;51.728;6.674;2022-08-19T05:14:10;21.17;;;18.03;;
4047;SDS011;2038;51.728;6.674;2022-08-19T05:16:40;21.03;;;18.17;;
4047;SDS011;2038;51.728;6.674;2022-08-19T05:19:06;19.30;;;17.10;;
4047;SDS011;2038;51.728;6.674;2022-08-19T05:21:51;18.07;;;16.13;;
4047;SDS011;2038;51.728;6.674;2022-08-19T05:24:37;21.30;;;18.30;;
4047;SDS011;2038;51.728;6.674;2022-08-19T05:27:03;22.23;;;17.33;;
4047;SDS011;2038;51.728;6.674;2022-08-19T05:29:31;18.63;;;15.73;;
4047;SDS011;2038;51.728;6.674;2022-08-19T05:31:59;20.30;;;17.87;;
4047;SDS011;2038;51.728;6.674;2022-08-19T05:34:30;20.70;;;18.03;;
4047;SDS011;2038;51.728;6.674;2022-08-19T05:36:58;26.90;;;20.87;;
4047;SDS011;2038;51.728;6.674;2022-08-19T05:39:28;20.70;;;17.67;;
4047;SDS011;2038;51.728;6.674;2022-08-19T05:41:58;18.37;;;16.27;;
4047;SDS011;2038;51.728;6.674;2022-08-19T05:44:30;25.57;;;21.10;;
4047;SDS011;2038;51.728;6.674;2022-08-19T05:46:59;25.70;;;21.20;;
4047;SDS011;2038;51.728;6.674;2022-08-19T05:49:28;23.23;;;19.67;;
4047;SDS011;2038;51.728;6.674;2022-08-19T05:51:56;25.50;;;18.97;;
4047;SDS011;2038;51.728;6.674;2022-08-19T05:54:24;32.47;;;19.57;;
4047;SDS011;2038;51.728;6.674;2022-08-19T05:56:51;25.57;;;19.50;;
4047;SDS011;2038;51.728;6.674;2022-08-19T05:59:19;22.80;;;18.07;;
4047;SDS011;2038;51.728;6.674;2022-08-19T06:01:47;26.07;;;21.10;;
4047;SDS011;2038;51.728;6.674;2022-08-19T06:04:15;19.87;;;17.30;;
4047;SDS011;2038;51.728;6.674;2022-08-19T06:06:45;21.50;;;18.10;;
4047;SDS011;2038;51.728;6.674;2022-08-19T06:09:13;18.50;;;14.00;;
4047;SDS011;2038;51.728;6.674;2022-08-19T06:11:45;19.97;;;16.90;;
4047;SDS011;2038;51.728;6.674;2022-08-19T06:14:24;21.83;;;19.47;;
4047;SDS011;2038;51.728;6.674;2022-08-19T06:16:54;26.33;;;22.47;;
4047;SDS011;2038;51.728;6.674;2022-08-19T06:19:22;23.40;;;20.90;;
4047;SDS011;2038;51.728;6.674;2022-08-19T06:21:53;22.53;;;20.20;;
4047;SDS011;2038;51.728;6.674;2022-08-19T06:24:21;19.47;;;17.37;;
4047;SDS011;2038;51.728;6.674;2022-08-19T06:26:50;26.97;;;23.07;;
4047;SDS011;2038;51.728;6.674;2022-08-19T06:29:21;30.00;;;24.00;;
4047;SDS011;2038;51.728;6.674;2022-08-19T06:31:53;29.97;;;25.33;;
4047;SDS011;2038;51.728;6.674;2022-08-19T06:34:24;26.87;;;21.47;;
4047;SDS011;2038;51.728;6.674;2022-08-19T06:36:53;27.33;;;22.80;;
4047;SDS011;2038;51.728;6.674;2022-08-19T06:39:27;25.67;;;22.60;;
4047;SDS011;2038;51.728;6.674;2022-08-19T06:42:05;27.23;;;23.60;;
4047;SDS011;2038;51.728;6.674;2022-08-19T06:44:35;29.70;;;24.70;;
4047;SDS011;2038;51.728;6.674;2022-08-19T06:47:06;30.30;;;25.23;;
4047;SDS011;2038;51.728;6.674;2022-08-19T06:49:35;37.60;;;27.50;;
4047;SDS011;2038;51.728;6.674;2022-08-19T06:52:02;36.73;;;29.27;;
4047;SDS011;2038;51.728;6.674;2022-08-19T06:54:29;33.57;;;28.07;;
4047;SDS011;2038;51.728;6.674;2022-08-19T06:56:59;32.50;;;26.20;;
4047;SDS011;2038;51.728;6.674;2022-08-19T06:59:27;37.97;;;30.90;;
4047;SDS011;2038;51.728;6.674;2022-08-19T07:01:58;43.30;;;34.53;;
4047;SDS011;2038;51.728;6.674;2022-08-19T07:04:30;48.63;;;39.07;;
4047;SDS011;2038;51.728;6.674;2022-08-19T07:07:04;51.30;;;39.47;;
4047;SDS011;2038;51.728;6.674;2022-08-19T07:09:38;49.20;;;38.97;;
4047;SDS011;2038;51.728;6.674;2022-08-19T07:12:09;48.20;;;38.07;;
4047;SDS011;2038;51.728;6.674;2022-08-19T07:14:42;49.27;;;37.73;;
4047;SDS011;2038;51.728;6.674;2022-08-19T07:17:11;48.30;;;35.30;;
4047;SDS011;2038;51.728;6.674;2022-08-19T07:19:38;46.77;;;35.90;;
4047;SDS011;2038;51.728;6.674;2022-08-19T07:22:06;52.80;;;40.70;;
4047;SDS011;2038;51.728;6.674;2022-08-19T07:24:35;53.03;;;41.80;;
4047;SDS011;2038;51.728;6.674;2022-08-19T07:27:04;54.37;;;39.43;;
4047;SDS011;2038;51.728;6.674;2022-08-19T07:29:32;53.40;;;39.80;;
4047;SDS011;2038;51.728;6.674;2022-08-19T07:32:01;49.00;;;39.60;;
4047;SDS011;2038;51.728;6.674;2022-08-19T07:34:29;48.07;;;36.30;;
4047;SDS011;2038;51.728;6.674;2022-08-19T07:37:02;47.57;;;37.40;;
4047;SDS011;2038;51.728;6.674;2022-08-19T07:39:31;50.63;;;38.70;;
4047;SDS011;2038;51.728;6.674;2022-08-19T07:42:02;48.73;;;37.80;;
4047;SDS011;2038;51.728;6.674;2022-08-19T07:44:34;51.50;;;39.20;;
4047;SDS011;2038;51.728;6.674;2022-08-19T07:47:02;50.70;;;37.93;;
4047;SDS011;2038;51.728;6.674;2022-08-19T07:49:30;54.27;;;38.10;;
4047;SDS011;2038;51.728;6.674;2022-08-19T07:54:34;55.93;;;34.73;;
4047;SDS011;2038;51.728;6.674;2022-08-19T07:57:04;44.20;;;34.20;;
4047;SDS011;2038;51.728;6.674;2022-08-19T07:59:31;56.80;;;35.27;;
4047;SDS011;2038;51.728;6.674;2022-08-19T08:01:57;39.40;;;33.03;;
4047;SDS011;2038;51.728;6.674;2022-08-19T08:04:25;42.67;;;33.57;;
4047;SDS011;2038;51.728;6.674;2022-08-19T08:07:12;44.57;;;33.00;;
4047;SDS011;2038;51.728;6.674;2022-08-19T08:09:58;46.53;;;34.30;;
4047;SDS011;2038;51.728;6.674;2022-08-19T08:12:26;43.13;;;32.70;;
4047;SDS011;2038;51.728;6.674;2022-08-19T08:14:59;45.80;;;33.93;;
4047;SDS011;2038;51.728;6.674;2022-08-19T08:17:32;43.70;;;32.87;;
4047;SDS011;2038;51.728;6.674;2022-08-19T08:20:01;46.37;;;30.50;;
4047;SDS011;2038;51.728;6.674;2022-08-19T08:22:32;42.03;;;29.67;;
4047;SDS011;2038;51.728;6.674;2022-08-19T08:25:19;40.50;;;29.60;;
4047;SDS011;2038;51.728;6.674;2022-08-19T08:27:48;36.93;;;27.50;;
4047;SDS011;2038;51.728;6.674;2022-08-19T08:30:17;41.30;;;30.13;;
4047;SDS011;2038;51.728;6.674;2022-08-19T08:32:47;42.00;;;29.47;;
4047;SDS011;2038;51.728;6.674;2022-08-19T08:35:16;37.03;;;30.87;;
4047;SDS011;2038;51.728;6.674;2022-08-19T08:37:47;37.03;;;28.30;;
4047;SDS011;2038;51.728;6.674;2022-08-19T08:43:06;34.57;;;26.37;;
4047;SDS011;2038;51.728;6.674;2022-08-19T08:45:47;30.33;;;23.23;;
4047;SDS011;2038;51.728;6.674;2022-08-19T08:48:51;29.73;;;23.93;;
4047;SDS011;2038;51.728;6.674;2022-08-19T08:51:51;31.67;;;25.00;;
4047;SDS011;2038;51.728;6.674;2022-08-19T08:54:33;29.77;;;23.13;;
4047;SDS011;2038;51.728;6.674;2022-08-19T08:57:09;34.00;;;26.20;;
4047;SDS011;2038;51.728;6.674;2022-08-19T08:59:51;36.87;;;23.67;;
4047;SDS011;2038;51.728;6.674;2022-08-19T09:02:22;31.63;;;24.00;;
4047;SDS011;2038;51.728;6.674;2022-08-19T09:04:49;27.30;;;22.43;;
4047;SDS011;2038;51.728;6.674;2022-08-19T09:09:52;34.17;;;22.90;;
4047;SDS011;2038;51.728;6.674;2022-08-19T09:15:19;27.40;;;21.27;;
4047;SDS011;2038;51.728;6.674;2022-08-19T09:17:58;33.43;;;26.53;;
4047;SDS011;2038;51.728;6.674;2022-08-19T09:20:26;30.90;;;22.67;;
4047;SDS011;2038;51.728;6.674;2022-08-19T09:22:53;25.47;;;20.27;;
4047;SDS011;2038;51.728;6.674;2022-08-19T09:25:20;25.97;;;22.07;;
4047;SDS011;2038;51.728;6.674;2022-08-19T09:27:48;31.23;;;22.80;;
4047;SDS011;2038;51.728;6.674;2022-08-19T09:30:26;24.43;;;19.63;;
4047;SDS011;2038;51.728;6.674;2022-08-19T09:32:55;33.63;;;24.23;;
4047;SDS011;2038;51.728;6.674;2022-08-19T09:35:22;21.53;;;18.90;;
4047;SDS011;2038;51.728;6.674;2022-08-19T09:37:53;26.47;;;22.60;;
4047;SDS011;2038;51.728;6.674;2022-08-19T09:40:22;35.37;;;24.60;;
4047;SDS011;2038;51.728;6.674;2022-08-19T09:42:48;36.23;;;26.47;;
4047;SDS011;2038;51.728;6.674;2022-08-19T09:45:15;39.83;;;28.17;;
4047;SDS011;2038;51.728;6.674;2022-08-19T09:47:51;33.47;;;25.33;;
4047;SDS011;2038;51.728;6.674;2022-08-19T09:50:19;41.10;;;28.50;;
4047;SDS011;2038;51.728;6.674;2022-08-19T09:52:46;53.13;;;32.37;;
4047;SDS011;2038;51.728;6.674;2022-08-19T09:55:12;40.53;;;27.87;;
4047;SDS011;2038;51.728;6.674;2022-08-19T09:57:40;43.40;;;31.23;;
4047;SDS011;2038;51.728;6.674;2022-08-19T10:00:07;40.97;;;29.20;;
4047;SDS011;2038;51.728;6.674;2022-08-19T10:02:35;37.70;;;29.33;;
4047;SDS011;2038;51.728;6.674;2022-08-19T10:05:02;39.57;;;30.40;;
4047;SDS011;2038;51.728;6.674;2022-08-19T10:07:47;43.93;;;31.40;;
4047;SDS011;2038;51.728;6.674;2022-08-19T10:10:13;47.10;;;34.80;;
4047;SDS011;2038;51.728;6.674;2022-08-19T10:12:40;42.83;;;34.10;;
4047;SDS011;2038;51.728;6.674;2022-08-19T10:15:07;44.70;;;33.77;;
4047;SDS011;2038;51.728;6.674;2022-08-19T10:17:34;49.80;;;35.60;;
4047;SDS011;2038;51.728;6.674;2022-08-19T10:20:00;51.23;;;37.20;;
4047;SDS011;2038;51.728;6.674;2022-08-19T10:22:29;50.63;;;36.60;;
4047;SDS011;2038;51.728;6.674;2022-08-19T10:24:55;52.87;;;37.00;;
4047;SDS011;2038;51.728;6.674;2022-08-19T10:27:22;57.23;;;35.17;;
4047;SDS011;2038;51.728;6.674;2022-08-19T10:29:49;43.30;;;32.40;;
4047;SDS011;2038;51.728;6.674;2022-08-19T10:32:15;37.00;;;27.30;;
4047;SDS011;2038;51.728;6.674;2022-08-19T10:34:41;41.67;;;29.30;;
4047;SDS011;2038;51.728;6.674;2022-08-19T10:37:08;45.17;;;34.03;;
4047;SDS011;2038;51.728;6.674;2022-08-19T10:39:34;39.60;;;29.60;;
4047;SDS011;2038;51.728;6.674;2022-08-19T10:42:05;39.53;;;30.03;;
4047;SDS011;2038;51.728;6.674;2022-08-19T10:44:35;35.30;;;27.73;;
4047;SDS011;2038;51.728;6.674;2022-08-19T10:47:02;34.17;;;27.13;;
4047;SDS011;2038;51.728;6.674;2022-08-19T10:49:29;28.10;;;21.90;;
4047;SDS011;2038;51.728;6.674;2022-08-19T10:51:57;30.70;;;22.40;;
4047;SDS011;2038;51.728;6.674;2022-08-19T10:54:42;28.33;;;21.80;;
4047;SDS011;2038;51.728;6.674;2022-08-19T10:57:30;25.67;;;20.30;;
4047;SDS011;2038;51.728;6.674;2022-08-19T10:59:56;23.93;;;16.80;;
4047;SDS011;2038;51.728;6.674;2022-08-19T11:02:22;22.60;;;18.60;;
4047;SDS011;2038;51.728;6.674;2022-08-19T11:04:48;18.50;;;14.90;;
4047;SDS011;2038;51.728;6.674;2022-08-19T11:07:16;15.10;;;13.43;;
4047;SDS011;2038;51.728;6.674;2022-08-19T11:09:42;18.13;;;12.83;;
4047;SDS011;2038;51.728;6.674;2022-08-19T11:12:09;17.90;;;13.30;;
4047;SDS011;2038;51.728;6.674;2022-08-19T11:14:37;14.63;;;12.70;;
4047;SDS011;2038;51.728;6.674;2022-08-19T11:17:04;15.27;;;11.00;;
4047;SDS011;2038;51.728;6.674;2022-08-19T11:19:31;14.67;;;12.03;;
4047;SDS011;2038;51.728;6.674;2022-08-19T11:21:58;18.53;;;11.80;;
4047;SDS011;2038;51.728;6.674;2022-08-19T11:24:27;16.23;;;10.77;;
4047;SDS011;2038;51.728;6.674;2022-08-19T11:27:02;14.30;;;9.60;;
4047;SDS011;2038;51.728;6.674;2022-08-19T11:29:33;18.47;;;11.20;;
4047;SDS011;2038;51.728;6.674;2022-08-19T11:32:07;15.50;;;10.27;;
4047;SDS011;2038;51.728;6.674;2022-08-19T11:34:35;14.83;;;11.10;;
4047;SDS011;2038;51.728;6.674;2022-08-19T11:37:02;18.97;;;13.73;;
4047;SDS011;2038;51.728;6.674;2022-08-19T11:39:31;20.73;;;14.90;;
4047;SDS011;2038;51.728;6.674;2022-08-19T11:41:59;17.73;;;9.27;;
4047;SDS011;2038;51.728;6.674;2022-08-19T11:44:49;11.13;;;9.27;;
4047;SDS011;2038;51.728;6.674;2022-08-19T11:47:16;12.43;;;9.63;;
4047;SDS011;2038;51.728;6.674;2022-08-19T11:49:42;14.40;;;11.17;;
4047;SDS011;2038;51.728;6.674;2022-08-19T11:52:08;15.23;;;11.13;;
4047;SDS011;2038;51.728;6.674;2022-08-19T11:54:35;14.40;;;11.57;;
4047;SDS011;2038;51.728;6.674;2022-08-19T11:57:03;12.13;;;9.80;;
4047;SDS011;2038;51.728;6.674;2022-08-19T11:59:30;16.10;;;11.23;;
4047;SDS011;2038;51.728;6.674;2022-08-19T12:01:56;14.37;;;10.40;;
4047;SDS011;2038;51.728;6.674;2022-08-19T12:04:22;12.80;;;9.70;;
4047;SDS011;2038;51.728;6.674;2022-08-19T12:06:49;15.63;;;10.03;;
4047;SDS011;2038;51.728;6.674;2022-08-19T12:09:15;13.47;;;10.00;;
4047;SDS011;2038;51.728;6.674;2022-08-19T12:11:42;20.83;;;10.50;;
4047;SDS011;2038;51.728;6.674;2022-08-19T12:14:10;14.50;;;9.90;;
4047;SDS011;2038;51.728;6.674;2022-08-19T12:16:38;12.63;;;9.00;;
4047;SDS011;2038;51.728;6.674;2022-08-19T12:19:06;13.80;;;10.30;;
4047;SDS011;2038;51.728;6.674;2022-08-19T12:21:33;17.97;;;9.50;;
4047;SDS011;2038;51.728;6.674;2022-08-19T12:24:01;8.43;;;7.53;;
4047;SDS011;2038;51.728;6.674;2022-08-19T12:26:30;9.87;;;7.63;;
4047;SDS011;2038;51.728;6.674;2022-08-19T12:28:56;8.33;;;6.70;;
4047;SDS011;2038;51.728;6.674;2022-08-19T12:31:24;10.20;;;7.40;;
4047;SDS011;2038;51.728;6.674;2022-08-19T12:33:52;10.47;;;8.70;;
4047;SDS011;2038;51.728;6.674;2022-08-19T12:36:19;13.23;;;8.30;;
4047;SDS011;2038;51.728;6.674;2022-08-19T12:38:47;14.10;;;9.67;;
4047;SDS011;2038;51.728;6.674;2022-08-19T12:41:15;11.30;;;8.03;;
4047;SDS011;2038;51.728;6.674;2022-08-19T12:43:43;12.63;;;10.47;;
4047;SDS011;2038;51.728;6.674;2022-08-19T12:46:10;10.97;;;9.67;;
4047;SDS011;2038;51.728;6.674;2022-08-19T12:48:37;17.27;;;13.20;;
4047;SDS011;2038;51.728;6.674;2022-08-19T12:51:07;16.53;;;12.67;;
4047;SDS011;2038;51.728;6.674;2022-08-19T12:53:37;20.70;;;14.37;;
4047;SDS011;2038;51.728;6.674;2022-08-19T12:56:04;25.13;;;16.50;;
4047;SDS011;2038;51.728;6.674;2022-08-19T12:58:35;24.23;;;17.03;;
4047;SDS011;2038;51.728;6.674;2022-08-19T13:01:06;22.60;;;17.60;;
4047;SDS011;2038;51.728;6.674;2022-08-19T13:03:36;20.57;;;18.23;;
4047;SDS011;2038;51.728;6.674;2022-08-19T13:06:03;23.17;;;19.03;;
4047;SDS011;2038;51.728;6.674;2022-08-19T13:08:29;23.80;;;19.87;;
4047;SDS011;2038;51.728;6.674;2022-08-19T13:10:57;26.10;;;20.80;;
4047;SDS011;2038;51.728;6.674;2022-08-19T13:13:31;28.70;;;21.80;;
4047;SDS011;2038;51.728;6.674;2022-08-19T13:16:00;25.97;;;20.83;;
4047;SDS011;2038;51.728;6.674;2022-08-19T13:18:28;27.87;;;20.47;;
4047;SDS011;2038;51.728;6.674;2022-08-19T13:20:54;25.33;;;18.03;;
4047;SDS011;2038;51.728;6.674;2022-08-19T13:23:21;27.53;;;16.63;;
4047;SDS011;2038;51.728;6.674;2022-08-19T13:26:00;17.07;;;15.27;;
4047;SDS011;2038;51.728;6.674;2022-08-19T13:28:29;17.80;;;13.80;;
4047;SDS011;2038;51.728;6.674;2022-08-19T13:31:16;19.80;;;15.50;;
4047;SDS011;2038;51.728;6.674;2022-08-19T13:34:03;17.50;;;13.43;;
4047;SDS011;2038;51.728;6.674;2022-08-19T13:36:31;18.57;;;14.10;;
4047;SDS011;2038;51.728;6.674;2022-08-19T13:38:58;14.97;;;13.40;;
4047;SDS011;2038;51.728;6.674;2022-08-19T13:41:25;32.20;;;15.30;;
4047;SDS011;2038;51.728;6.674;2022-08-19T13:43:52;16.53;;;13.23;;
4047;SDS011;2038;51.728;6.674;2022-08-19T13:46:19;16.87;;;13.43;;
4047;SDS011;2038;51.728;6.674;2022-08-19T13:48:46;16.63;;;14.20;;
4047;SDS011;2038;51.728;6.674;2022-08-19T13:51:13;16.23;;;14.50;;
4047;SDS011;2038;51.728;6.674;2022-08-19T13:53:42;16.97;;;14.73;;
4047;SDS011;2038;51.728;6.674;2022-08-19T13:56:10;20.03;;;15.57;;
4047;SDS011;2038;51.728;6.674;2022-08-19T13:58:40;22.57;;;14.67;;
4047;SDS011;2038;51.728;6.674;2022-08-19T14:01:07;15.13;;;12.97;;
4047;SDS011;2038;51.728;6.674;2022-08-19T14:03:34;20.10;;;13.93;;
4047;SDS011;2038;51.728;6.674;2022-08-19T14:06:01;18.27;;;12.50;;
4047;SDS011;2038;51.728;6.674;2022-08-19T14:08:28;18.00;;;13.60;;
4047;SDS011;2038;51.728;6.674;2022-08-19T14:10:57;12.40;;;11.10;;
4047;SDS011;2038;51.728;6.674;2022-08-19T14:13:23;19.97;;;10.47;;
4047;SDS011;2038;51.728;6.674;2022-08-19T14:15:50;16.60;;;13.77;;
4047;SDS011;2038;51.728;6.674;2022-08-19T14:18:18;15.53;;;12.83;;
4047;SDS011;2038;51.728;6.674;2022-08-19T14:20:44;18.33;;;13.83;;
4047;SDS011;2038;51.728;6.674;2022-08-19T14:23:11;22.30;;;14.40;;
4047;SDS011;2038;51.728;6.674;2022-08-19T14:25:38;12.80;;;9.23;;
4047;SDS011;2038;51.728;6.674;2022-08-19T14:28:04;10.50;;;8.90;;
4047;SDS011;2038;51.728;6.674;2022-08-19T14:30:32;14.23;;;11.43;;
4047;SDS011;2038;51.728;6.674;2022-08-19T14:33:03;16.60;;;10.87;;
4047;SDS011;2038;51.728;6.674;2022-08-19T14:35:31;16.73;;;13.30;;
4047;SDS011;2038;51.728;6.674;2022-08-19T14:37:59;14.00;;;12.50;;
4047;SDS011;2038;51.728;6.674;2022-08-19T14:40:28;20.30;;;12.77;;
4047;SDS011;2038;51.728;6.674;2022-08-19T14:42:57;17.83;;;11.57;;
4047;SDS011;2038;51.728;6.674;2022-08-19T14:45:28;17.00;;;12.57;;
4047;SDS011;2038;51.728;6.674;2022-08-19T14:47:57;11.70;;;10.50;;
4047;SDS011;2038;51.728;6.674;2022-08-19T14:50:25;13.63;;;11.07;;
4047;SDS011;2038;51.728;6.674;2022-08-19T14:52:57;15.20;;;9.30;;
4047;SDS011;2038;51.728;6.674;2022-08-19T14:55:29;10.40;;;8.70;;
4047;SDS011;2038;51.728;6.674;2022-08-19T14:57:56;9.63;;;8.70;;
4047;SDS011;2038;51.728;6.674;2022-08-19T15:00:23;13.53;;;8.83;;
4047;SDS011;2038;51.728;6.674;2022-08-19T15:02:50;16.83;;;10.30;;
4047;SDS011;2038;51.728;6.674;2022-08-19T15:05:19;13.00;;;9.10;;
4047;SDS011;2038;51.728;6.674;2022-08-19T15:07:46;12.60;;;8.57;;
4047;SDS011;2038;51.728;6.674;2022-08-19T15:10:14;13.33;;;9.53;;
4047;SDS011;2038;51.728;6.674;2022-08-19T15:12:41;10.90;;;9.37;;
4047;SDS011;2038;51.728;6.674;2022-08-19T15:15:11;13.53;;;10.57;;
4047;SDS011;2038;51.728;6.674;2022-08-19T15:17:40;10.67;;;9.57;;